createdAt,value
2019-05-22T00:04:27.192Z,5.30
2019-05-22T00:09:39.934Z,7.73
2019-05-22T00:14:46.643Z,4.03
2019-05-22T00:19:51.223Z,4.63
2019-05-22T00:25:00.505Z,4.83
2019-05-22T00:30:06.195Z,5.27
2019-05-22T00:35:14.410Z,5.00
2019-05-22T00:40:20.355Z,5.73
2019-05-22T00:45:25.004Z,7.70
2019-05-22T00:50:32.667Z,7.30
2019-05-22T00:55:43.735Z,10.80
2019-05-22T01:01:14.270Z,9.07
2019-05-22T01:06:22.748Z,5.77
2019-05-22T01:11:29.357Z,14.53
2019-05-22T01:16:34.008Z,7.37
2019-05-22T01:21:40.065Z,9.00
2019-05-22T01:26:48.302Z,8.03
2019-05-22T01:31:59.742Z,9.47
2019-05-22T01:37:10.205Z,9.23
2019-05-22T01:42:15.465Z,15.63
2019-05-22T01:47:24.121Z,14.80
2019-05-22T01:52:29.657Z,13.13
2019-05-22T01:57:34.768Z,13.77
2019-05-22T02:02:40.954Z,11.87
2019-05-22T02:07:45.541Z,11.40
2019-05-22T02:12:52.450Z,15.23
2019-05-22T02:17:57.711Z,10.10
2019-05-22T02:23:02.774Z,11.10
2019-05-22T02:28:09.172Z,15.23
2019-05-22T02:33:14.415Z,14.83
2019-05-22T02:38:18.979Z,11.50
2019-05-22T02:43:24.561Z,12.73
2019-05-22T02:48:30.783Z,12.97
2019-05-22T02:53:35.803Z,14.70
2019-05-22T02:58:40.534Z,13.40
2019-05-22T03:03:45.683Z,14.30
2019-05-22T03:09:08.111Z,15.47
2019-05-22T03:14:13.545Z,14.27
2019-05-22T03:19:22.637Z,13.63
2019-05-22T03:24:28.901Z,14.03
2019-05-22T03:29:53.279Z,12.30
2019-05-22T03:34:59.403Z,14.77
2019-05-22T03:40:06.194Z,16.50
2019-05-22T03:45:11.888Z,9.13
2019-05-22T03:50:17.811Z,15.87
2019-05-22T03:55:23.573Z,13.07
2019-05-22T04:00:29.108Z,17.67
2019-05-22T04:05:34.986Z,12.97
2019-05-22T04:10:46.962Z,11.53
2019-05-22T04:15:53.348Z,15.73
2019-05-22T04:20:58.382Z,13.67
2019-05-22T04:26:06.013Z,15.07
2019-05-22T04:31:10.682Z,13.83
2019-05-22T04:36:17.069Z,11.73
2019-05-22T04:41:21.884Z,12.33
2019-05-22T04:46:27.054Z,10.67
2019-05-22T04:51:31.713Z,11.07
2019-05-22T04:56:36.345Z,12.80
2019-05-22T05:01:41.080Z,11.20
2019-05-22T05:06:47.872Z,11.40
2019-05-22T05:11:52.436Z,13.27
2019-05-22T05:16:58.458Z,12.80
2019-05-22T05:22:02.993Z,12.23
2019-05-22T05:27:10.710Z,12.37
2019-05-22T05:32:15.642Z,12.20
2019-05-22T05:37:23.733Z,8.17
2019-05-22T05:42:28.543Z,7.63
2019-05-22T05:47:33.127Z,9.53
2019-05-22T05:52:38.038Z,10.10
2019-05-22T05:58:03.174Z,7.27
2019-05-22T06:03:27.102Z,7.77
2019-05-22T06:08:33.699Z,6.70
2019-05-22T06:13:38.279Z,8.50
2019-05-22T06:18:43.396Z,7.30
2019-05-22T06:24:06.089Z,5.00
2019-05-22T06:29:12.654Z,4.73
2019-05-22T06:34:17.206Z,5.80
2019-05-22T06:39:23.027Z,5.27
2019-05-22T06:44:44.195Z,5.63
2019-05-22T06:49:53.387Z,3.93
2019-05-22T06:54:57.925Z,3.67
2019-05-22T07:00:15.261Z,4.40
2019-05-22T07:05:20.287Z,3.40
2019-05-22T07:10:26.170Z,5.07
2019-05-22T07:15:56.409Z,7.00
2019-05-22T07:21:01.459Z,7.67
2019-05-22T07:26:08.123Z,7.13
2019-05-22T07:31:13.835Z,4.87
2019-05-22T07:36:18.637Z,5.40
2019-05-22T07:41:23.384Z,3.90
2019-05-22T07:46:30.871Z,10.90
2019-05-22T07:51:49.720Z,8.07
2019-05-22T07:56:41.402Z,8.27
2019-05-22T08:01:46.113Z,5.20
2019-05-22T08:06:51.024Z,9.20
2019-05-22T08:11:55.850Z,7.30
2019-05-22T08:17:00.392Z,4.27
2019-05-22T08:22:07.630Z,7.67
2019-05-22T08:27:11.143Z,7.93
2019-05-22T08:32:15.792Z,5.80
2019-05-22T08:37:22.022Z,6.77
2019-05-22T08:42:26.550Z,7.97
2019-05-22T08:47:31.740Z,4.67
2019-05-22T08:52:36.679Z,5.27
2019-05-22T08:57:42.542Z,5.63
2019-05-22T09:02:47.339Z,4.27
2019-05-22T09:07:51.951Z,7.37
2019-05-22T09:12:56.554Z,7.73
2019-05-22T09:18:01.176Z,9.37
2019-05-22T09:23:06.041Z,5.00
2019-05-22T09:28:10.778Z,9.00
2019-05-22T09:33:16.446Z,5.90
2019-05-22T09:38:23.390Z,6.87
2019-05-22T09:43:27.917Z,5.83
2019-05-22T09:48:33.846Z,6.97
2019-05-22T09:53:39.570Z,6.70
2019-05-22T09:58:44.408Z,8.43
2019-05-22T10:03:49.323Z,5.53
2019-05-22T10:08:53.925Z,8.33
2019-05-22T10:13:58.613Z,5.17
2019-05-22T10:19:04.014Z,6.93
2019-05-22T10:24:08.531Z,7.00
2019-05-22T10:29:13.729Z,8.00
2019-05-22T10:34:18.278Z,6.70
2019-05-22T10:39:24.870Z,3.57
2019-05-22T10:44:29.776Z,5.63
2019-05-22T10:49:34.359Z,6.27
2019-05-22T10:54:38.881Z,5.50
2019-05-22T10:59:43.963Z,4.87
2019-05-22T11:04:49.199Z,4.27
2019-05-22T11:09:54.554Z,4.97
2019-05-22T11:14:59.553Z,3.53
2019-05-22T11:20:08.424Z,6.93
2019-05-22T11:25:13.753Z,5.70
2019-05-22T11:30:18.363Z,8.67
2019-05-22T11:35:23.788Z,7.50
2019-05-22T11:40:29.074Z,4.33
2019-05-22T11:45:34.095Z,3.93
2019-05-22T11:50:39.596Z,5.50
2019-05-22T11:55:46.140Z,3.63
2019-05-22T12:00:51.242Z,5.73
2019-05-22T12:05:55.950Z,4.60
2019-05-22T12:11:01.957Z,4.80
2019-05-22T12:16:07.145Z,5.37
2019-05-22T12:21:12.331Z,4.07
2019-05-22T12:26:17.525Z,5.30
2019-05-22T12:31:22.618Z,4.07
2019-05-22T12:36:27.154Z,4.87
2019-05-22T12:41:32.222Z,4.83
2019-05-22T12:46:37.153Z,4.07
2019-05-22T12:51:41.667Z,5.93
2019-05-22T12:56:46.196Z,3.37
2019-05-22T13:01:52.871Z,3.37
2019-05-22T13:06:57.537Z,1.13
2019-05-22T13:12:03.836Z,3.53
2019-05-22T13:17:09.315Z,3.37
2019-05-22T13:22:14.351Z,4.63
2019-05-22T13:27:20.087Z,4.20
2019-05-22T13:32:26.630Z,3.30
2019-05-22T13:37:31.152Z,3.97
2019-05-22T13:42:36.657Z,4.17
2019-05-22T13:47:41.188Z,2.50
2019-05-22T13:52:46.658Z,3.27
2019-05-22T13:57:51.258Z,6.30
2019-05-22T14:02:57.105Z,3.53
2019-05-22T14:08:01.697Z,2.40
2019-05-22T14:13:07.313Z,4.07
2019-05-22T14:18:12.963Z,4.53
2019-05-22T14:23:19.057Z,6.30
2019-05-22T14:28:25.278Z,3.50
2019-05-22T14:33:31.510Z,6.30
2019-05-22T14:38:36.058Z,6.10
2019-05-22T14:43:41.498Z,3.40
2019-05-22T14:48:46.038Z,4.07
2019-05-22T14:53:54.287Z,4.47
2019-05-22T14:58:58.908Z,6.33
2019-05-22T15:04:06.555Z,4.83
2019-05-22T15:09:11.154Z,2.47
2019-05-22T15:14:17.069Z,2.80
2019-05-22T15:19:21.984Z,5.13
2019-05-22T15:24:27.797Z,3.83
2019-05-22T15:29:32.354Z,3.37
2019-05-22T15:34:38.549Z,3.03
2019-05-22T15:39:44.267Z,3.40
2019-05-22T15:44:48.946Z,2.20
2019-05-22T15:49:54.393Z,3.70
2019-05-22T15:55:00.712Z,5.70
2019-05-22T16:00:06.143Z,4.33
2019-05-22T16:05:12.501Z,3.60
2019-05-22T16:10:17.913Z,2.90
2019-05-22T16:15:23.831Z,4.43
2019-05-22T16:20:28.588Z,5.87
2019-05-22T16:25:37.185Z,3.43
2019-05-22T16:30:41.796Z,3.07
2019-05-22T16:35:48.115Z,2.80
2019-05-22T16:40:52.909Z,3.50
2019-05-22T16:45:58.185Z,4.40
2019-05-22T16:51:02.806Z,4.47
2019-05-22T16:56:07.778Z,2.57
2019-05-22T17:01:13.225Z,2.20
2019-05-22T17:06:19.398Z,3.33
2019-05-22T17:11:24.055Z,4.03
2019-05-22T17:16:31.929Z,3.63
2019-05-22T17:21:37.058Z,3.40
2019-05-22T17:26:43.949Z,2.93
2019-05-22T17:31:48.582Z,5.13
2019-05-22T17:36:55.546Z,3.03
2019-05-22T17:42:00.171Z,7.27
2019-05-22T17:47:06.687Z,2.67
2019-05-22T17:52:13.303Z,2.60
2019-05-22T17:57:21.483Z,4.47
2019-05-22T18:02:31.463Z,3.23
2019-05-22T18:07:38.526Z,3.13
2019-05-22T18:12:43.171Z,2.03
2019-05-22T18:17:49.159Z,3.67
2019-05-22T18:22:53.859Z,2.07
2019-05-22T18:28:01.243Z,2.73
2019-05-22T18:33:05.975Z,2.97
2019-05-22T18:38:11.651Z,2.70
2019-05-22T18:43:18.799Z,3.20
2019-05-22T18:48:23.532Z,3.03
2019-05-22T18:53:28.322Z,1.70
2019-05-22T18:58:33.390Z,1.97
2019-05-22T19:03:38.035Z,6.10
2019-05-22T19:08:43.142Z,2.30
2019-05-22T19:13:47.793Z,3.03
2019-05-22T19:18:52.538Z,4.43
2019-05-22T19:23:57.071Z,3.00
2019-05-22T19:29:02.342Z,1.97
2019-05-22T19:34:07.064Z,2.10
2019-05-22T19:39:11.850Z,2.03
2019-05-22T19:44:17.016Z,1.93
2019-05-22T19:49:23.754Z,2.07
2019-05-22T19:54:28.441Z,2.37
2019-05-22T19:59:35.027Z,2.43
2019-05-22T20:04:39.922Z,6.90
2019-05-22T20:09:45.607Z,4.23
2019-05-22T20:14:50.358Z,4.07
2019-05-22T20:19:55.138Z,2.13
2019-05-22T20:24:59.669Z,2.37
2019-05-22T20:30:05.140Z,6.80
2019-05-22T20:35:10.075Z,1.87
2019-05-22T20:40:14.729Z,2.60
2019-05-22T20:45:23.057Z,6.17
2019-05-22T20:50:27.654Z,2.80
2019-05-22T20:55:32.258Z,2.33
2019-05-22T21:00:36.950Z,1.77
2019-05-22T21:05:43.390Z,4.57
2019-05-22T21:10:48.669Z,1.57
2019-05-22T21:15:54.951Z,2.57
2019-05-22T21:21:00.512Z,1.70
2019-05-22T21:26:05.086Z,2.23
2019-05-22T21:31:13.060Z,4.97
2019-05-22T21:36:18.948Z,1.80
2019-05-22T21:41:24.194Z,2.37
2019-05-22T21:46:29.451Z,4.50
2019-05-22T21:51:34.286Z,1.53
2019-05-22T21:56:39.898Z,3.03
2019-05-22T22:02:02.914Z,4.80
2019-05-22T22:07:08.023Z,2.20
2019-05-22T22:12:14.841Z,1.70
2019-05-22T22:17:20.642Z,1.70
2019-05-22T22:22:26.782Z,2.10
2019-05-22T22:27:32.010Z,1.40
2019-05-22T22:32:39.217Z,2.63
2019-05-22T22:37:44.766Z,1.97
2019-05-22T22:42:51.577Z,1.63
2019-05-22T22:47:56.320Z,1.97
2019-05-22T22:53:01.276Z,2.60
2019-05-22T22:58:17.125Z,3.67
2019-05-22T23:03:18.188Z,4.37
2019-05-22T23:08:24.660Z,1.60
2019-05-22T23:13:29.952Z,4.70
2019-05-22T23:18:53.047Z,1.40
2019-05-22T23:23:57.277Z,4.17
2019-05-22T23:29:01.863Z,2.13
2019-05-22T23:34:08.051Z,1.40
2019-05-22T23:39:15.102Z,1.60
2019-05-22T23:44:21.451Z,1.73
2019-05-22T23:49:27.326Z,4.67
2019-05-22T23:54:33.691Z,1.90
2019-05-22T23:59:39.885Z,2.53
